sensor_id;sensor_type;location;lat;lon;timestamp;temperature;humidity
45969;DHT22;31676;40.444;-3.668;2023-02-28T00:02:17;20.30;78.00
45969;DHT22;31676;40.444;-3.668;2023-02-28T00:04:43;20.30;78.00
45969;DHT22;31676;40.444;-3.668;2023-02-28T00:07:09;20.30;78.00
45969;DHT22;31676;40.444;-3.668;2023-02-28T00:09:34;20.30;78.00
45969;DHT22;31676;40.444;-3.668;2023-02-28T00:12:00;20.30;78.00
45969;DHT22;31676;40.444;-3.668;2023-02-28T00:14:36;20.30;78.00
45969;DHT22;31676;40.444;-3.668;2023-02-28T00:17:01;20.30;78.00
45969;DHT22;31676;40.444;-3.668;2023-02-28T00:19:27;20.30;78.00
45969;DHT22;31676;40.444;-3.668;2023-02-28T00:21:53;20.30;78.00
45969;DHT22;31676;40.444;-3.668;2023-02-28T00:24:18;20.30;78.00
45969;DHT22;31676;40.444;-3.668;2023-02-28T00:26:44;20.30;78.00
45969;DHT22;31676;40.444;-3.668;2023-02-28T00:29:10;20.30;78.00
45969;DHT22;31676;40.444;-3.668;2023-02-28T00:31:35;20.30;78.00
45969;DHT22;31676;40.444;-3.668;2023-02-28T00:34:01;20.30;78.00
45969;DHT22;31676;40.444;-3.668;2023-02-28T00:36:27;20.30;78.00
45969;DHT22;31676;40.444;-3.668;2023-02-28T00:38:52;20.30;78.00
45969;DHT22;31676;40.444;-3.668;2023-02-28T00:41:18;20.30;78.00
45969;DHT22;31676;40.444;-3.668;2023-02-28T00:43:44;20.30;78.00
45969;DHT22;31676;40.444;-3.668;2023-02-28T00:46:09;20.30;78.00
45969;DHT22;31676;40.444;-3.668;2023-02-28T00:48:36;20.20;77.90
45969;DHT22;31676;40.444;-3.668;2023-02-28T00:51:02;20.30;78.00
45969;DHT22;31676;40.444;-3.668;2023-02-28T00:53:27;20.30;78.00
45969;DHT22;31676;40.444;-3.668;2023-02-28T00:55:53;20.20;77.90
45969;DHT22;31676;40.444;-3.668;2023-02-28T00:58:19;20.20;77.90
45969;DHT22;31676;40.444;-3.668;2023-02-28T01:00:44;20.30;78.00
45969;DHT22;31676;40.444;-3.668;2023-02-28T01:03:14;20.20;77.90
45969;DHT22;31676;40.444;-3.668;2023-02-28T01:05:40;20.20;77.90
45969;DHT22;31676;40.444;-3.668;2023-02-28T01:08:06;20.30;78.00
45969;DHT22;31676;40.444;-3.668;2023-02-28T01:10:32;20.20;77.90
45969;DHT22;31676;40.444;-3.668;2023-02-28T01:12:58;20.20;77.90
45969;DHT22;31676;40.444;-3.668;2023-02-28T01:15:24;20.20;77.90
45969;DHT22;31676;40.444;-3.668;2023-02-28T01:17:49;20.20;77.90
45969;DHT22;31676;40.444;-3.668;2023-02-28T01:20:15;20.20;77.90
45969;DHT22;31676;40.444;-3.668;2023-02-28T01:22:41;20.20;77.90
45969;DHT22;31676;40.444;-3.668;2023-02-28T01:25:06;20.20;78.00
45969;DHT22;31676;40.444;-3.668;2023-02-28T01:27:33;20.20;78.00
45969;DHT22;31676;40.444;-3.668;2023-02-28T01:29:59;20.20;77.90
45969;DHT22;31676;40.444;-3.668;2023-02-28T01:32:24;20.20;77.90
45969;DHT22;31676;40.444;-3.668;2023-02-28T01:34:50;20.20;78.00
45969;DHT22;31676;40.444;-3.668;2023-02-28T01:37:15;20.20;77.90
45969;DHT22;31676;40.444;-3.668;2023-02-28T01:39:41;20.20;77.90
45969;DHT22;31676;40.444;-3.668;2023-02-28T01:42:08;20.20;77.90
45969;DHT22;31676;40.444;-3.668;2023-02-28T01:47:18;20.20;77.90
45969;DHT22;31676;40.444;-3.668;2023-02-28T01:49:44;20.20;77.90
45969;DHT22;31676;40.444;-3.668;2023-02-28T01:52:10;20.20;77.90
45969;DHT22;31676;40.444;-3.668;2023-02-28T01:54:40;20.20;77.90
45969;DHT22;31676;40.444;-3.668;2023-02-28T01:57:07;20.20;78.60
45969;DHT22;31676;40.444;-3.668;2023-02-28T01:59:37;20.20;77.90
45969;DHT22;31676;40.444;-3.668;2023-02-28T02:02:05;20.20;77.90
45969;DHT22;31676;40.444;-3.668;2023-02-28T02:04:39;20.20;77.90
45969;DHT22;31676;40.444;-3.668;2023-02-28T02:07:05;20.20;77.90
45969;DHT22;31676;40.444;-3.668;2023-02-28T02:09:31;20.20;77.90
45969;DHT22;31676;40.444;-3.668;2023-02-28T02:11:56;20.20;77.90
45969;DHT22;31676;40.444;-3.668;2023-02-28T02:17:37;20.20;77.90
45969;DHT22;31676;40.444;-3.668;2023-02-28T02:29:47;20.20;78.00
45969;DHT22;31676;40.444;-3.668;2023-02-28T02:40:03;20.20;77.90
45969;DHT22;31676;40.444;-3.668;2023-02-28T02:42:36;20.20;78.60
45969;DHT22;31676;40.444;-3.668;2023-02-28T02:45:09;20.10;77.90
45969;DHT22;31676;40.444;-3.668;2023-02-28T02:47:35;20.10;77.80
45969;DHT22;31676;40.444;-3.668;2023-02-28T02:50:04;20.10;77.80
45969;DHT22;31676;40.444;-3.668;2023-02-28T02:52:33;20.10;77.80
45969;DHT22;31676;40.444;-3.668;2023-02-28T02:54:59;20.10;77.90
45969;DHT22;31676;40.444;-3.668;2023-02-28T02:57:27;20.10;77.80
45969;DHT22;31676;40.444;-3.668;2023-02-28T02:59:54;20.10;77.90
45969;DHT22;31676;40.444;-3.668;2023-02-28T03:02:21;20.10;77.80
45969;DHT22;31676;40.444;-3.668;2023-02-28T03:04:56;20.10;77.80
45969;DHT22;31676;40.444;-3.668;2023-02-28T03:07:26;20.10;77.80
45969;DHT22;31676;40.444;-3.668;2023-02-28T03:09:55;20.10;77.80
45969;DHT22;31676;40.444;-3.668;2023-02-28T03:12:21;20.10;77.90
45969;DHT22;31676;40.444;-3.668;2023-02-28T03:14:54;20.10;77.80
45969;DHT22;31676;40.444;-3.668;2023-02-28T03:35:14;20.10;77.90
45969;DHT22;31676;40.444;-3.668;2023-02-28T03:37:47;20.10;77.90
45969;DHT22;31676;40.444;-3.668;2023-02-28T03:40:15;20.10;77.80
45969;DHT22;31676;40.444;-3.668;2023-02-28T03:42:43;20.10;77.80
45969;DHT22;31676;40.444;-3.668;2023-02-28T03:45:11;20.10;77.80
45969;DHT22;31676;40.444;-3.668;2023-02-28T03:52:34;20.10;77.80
45969;DHT22;31676;40.444;-3.668;2023-02-28T03:55:02;20.00;77.80
45969;DHT22;31676;40.444;-3.668;2023-02-28T03:57:34;20.10;77.90
45969;DHT22;31676;40.444;-3.668;2023-02-28T04:00:07;20.00;77.80
45969;DHT22;31676;40.444;-3.668;2023-02-28T04:02:34;20.10;77.80
45969;DHT22;31676;40.444;-3.668;2023-02-28T04:05:00;20.10;77.80
45969;DHT22;31676;40.444;-3.668;2023-02-28T04:07:28;20.10;77.80
45969;DHT22;31676;40.444;-3.668;2023-02-28T04:09:54;20.00;77.80
45969;DHT22;31676;40.444;-3.668;2023-02-28T04:12:20;20.10;77.80
45969;DHT22;31676;40.444;-3.668;2023-02-28T04:14:48;20.00;77.80
45969;DHT22;31676;40.444;-3.668;2023-02-28T04:17:14;20.10;77.90
45969;DHT22;31676;40.444;-3.668;2023-02-28T04:19:40;20.00;77.80
45969;DHT22;31676;40.444;-3.668;2023-02-28T04:22:05;20.00;77.80
45969;DHT22;31676;40.444;-3.668;2023-02-28T04:24:31;20.00;77.80
45969;DHT22;31676;40.444;-3.668;2023-02-28T04:26:57;20.10;77.80
45969;DHT22;31676;40.444;-3.668;2023-02-28T04:31:48;20.00;77.80
45969;DHT22;31676;40.444;-3.668;2023-02-28T04:34:14;20.00;77.80
45969;DHT22;31676;40.444;-3.668;2023-02-28T04:36:40;20.00;77.80
45969;DHT22;31676;40.444;-3.668;2023-02-28T04:39:06;20.00;77.80
45969;DHT22;31676;40.444;-3.668;2023-02-28T04:41:32;20.00;77.80
45969;DHT22;31676;40.444;-3.668;2023-02-28T04:43:57;20.00;77.80
45969;DHT22;31676;40.444;-3.668;2023-02-28T04:46:23;20.00;77.80
45969;DHT22;31676;40.444;-3.668;2023-02-28T04:48:49;20.00;77.80
45969;DHT22;31676;40.444;-3.668;2023-02-28T04:51:15;20.00;77.80
45969;DHT22;31676;40.444;-3.668;2023-02-28T04:53:42;20.00;77.80
45969;DHT22;31676;40.444;-3.668;2023-02-28T04:56:08;20.00;77.80
45969;DHT22;31676;40.444;-3.668;2023-02-28T04:58:36;20.00;77.80
45969;DHT22;31676;40.444;-3.668;2023-02-28T05:01:02;20.00;77.80
45969;DHT22;31676;40.444;-3.668;2023-02-28T05:03:28;20.00;77.80
45969;DHT22;31676;40.444;-3.668;2023-02-28T05:05:54;20.00;77.80
45969;DHT22;31676;40.444;-3.668;2023-02-28T05:08:20;20.00;77.70
45969;DHT22;31676;40.444;-3.668;2023-02-28T05:10:45;20.00;77.70
45969;DHT22;31676;40.444;-3.668;2023-02-28T05:13:11;20.00;77.70
45969;DHT22;31676;40.444;-3.668;2023-02-28T05:15:37;20.00;77.80
45969;DHT22;31676;40.444;-3.668;2023-02-28T05:18:03;20.00;77.70
45969;DHT22;31676;40.444;-3.668;2023-02-28T05:20:28;20.00;77.70
45969;DHT22;31676;40.444;-3.668;2023-02-28T05:22:54;20.00;77.80
45969;DHT22;31676;40.444;-3.668;2023-02-28T05:25:20;20.00;77.70
45969;DHT22;31676;40.444;-3.668;2023-02-28T05:27:48;20.00;77.80
45969;DHT22;31676;40.444;-3.668;2023-02-28T05:30:14;20.00;77.80
45969;DHT22;31676;40.444;-3.668;2023-02-28T05:32:40;20.00;77.80
45969;DHT22;31676;40.444;-3.668;2023-02-28T05:35:10;20.00;77.80
45969;DHT22;31676;40.444;-3.668;2023-02-28T05:37:36;19.90;77.70
45969;DHT22;31676;40.444;-3.668;2023-02-28T05:40:02;19.90;77.70
45969;DHT22;31676;40.444;-3.668;2023-02-28T05:42:31;19.90;77.70
45969;DHT22;31676;40.444;-3.668;2023-02-28T05:44:57;19.90;77.70
45969;DHT22;31676;40.444;-3.668;2023-02-28T05:47:23;20.00;78.40
45969;DHT22;31676;40.444;-3.668;2023-02-28T05:49:48;20.00;77.70
45969;DHT22;31676;40.444;-3.668;2023-02-28T05:52:14;20.00;78.40
45969;DHT22;31676;40.444;-3.668;2023-02-28T05:54:40;20.00;77.80
45969;DHT22;31676;40.444;-3.668;2023-02-28T05:57:06;19.90;77.70
45969;DHT22;31676;40.444;-3.668;2023-02-28T05:59:32;19.90;77.70
45969;DHT22;31676;40.444;-3.668;2023-02-28T06:01:58;20.00;77.70
45969;DHT22;31676;40.444;-3.668;2023-02-28T06:04:24;19.90;77.70
45969;DHT22;31676;40.444;-3.668;2023-02-28T06:06:50;19.90;77.70
45969;DHT22;31676;40.444;-3.668;2023-02-28T06:09:16;19.90;77.70
45969;DHT22;31676;40.444;-3.668;2023-02-28T06:11:42;20.00;77.80
45969;DHT22;31676;40.444;-3.668;2023-02-28T06:14:10;19.90;77.70
45969;DHT22;31676;40.444;-3.668;2023-02-28T06:16:38;19.90;77.70
45969;DHT22;31676;40.444;-3.668;2023-02-28T06:19:03;19.90;77.70
45969;DHT22;31676;40.444;-3.668;2023-02-28T06:21:29;19.90;77.70
45969;DHT22;31676;40.444;-3.668;2023-02-28T06:23:55;19.90;77.70
45969;DHT22;31676;40.444;-3.668;2023-02-28T06:26:21;19.90;77.70
45969;DHT22;31676;40.444;-3.668;2023-02-28T06:28:47;19.90;77.70
45969;DHT22;31676;40.444;-3.668;2023-02-28T06:31:13;19.90;77.70
45969;DHT22;31676;40.444;-3.668;2023-02-28T06:33:40;19.90;78.40
45969;DHT22;31676;40.444;-3.668;2023-02-28T06:36:06;19.90;77.70
45969;DHT22;31676;40.444;-3.668;2023-02-28T06:38:32;19.90;77.70
45969;DHT22;31676;40.444;-3.668;2023-02-28T06:40:58;19.90;77.70
45969;DHT22;31676;40.444;-3.668;2023-02-28T06:43:28;19.90;77.80
45969;DHT22;31676;40.444;-3.668;2023-02-28T06:45:54;19.90;77.70
45969;DHT22;31676;40.444;-3.668;2023-02-28T06:48:20;19.90;77.70
45969;DHT22;31676;40.444;-3.668;2023-02-28T06:50:46;19.90;77.70
45969;DHT22;31676;40.444;-3.668;2023-02-28T06:53:12;19.90;77.70
45969;DHT22;31676;40.444;-3.668;2023-02-28T06:55:38;19.80;77.70
45969;DHT22;31676;40.444;-3.668;2023-02-28T06:58:04;19.90;77.80
45969;DHT22;31676;40.444;-3.668;2023-02-28T07:00:43;19.80;77.70
45969;DHT22;31676;40.444;-3.668;2023-02-28T07:03:09;19.80;77.70
45969;DHT22;31676;40.444;-3.668;2023-02-28T07:05:35;19.80;77.70
45969;DHT22;31676;40.444;-3.668;2023-02-28T07:08:02;19.90;77.80
45969;DHT22;31676;40.444;-3.668;2023-02-28T07:10:28;19.90;77.70
45969;DHT22;31676;40.444;-3.668;2023-02-28T07:12:54;19.80;77.70
45969;DHT22;31676;40.444;-3.668;2023-02-28T07:15:20;19.90;77.80
45969;DHT22;31676;40.444;-3.668;2023-02-28T07:17:46;19.80;77.70
45969;DHT22;31676;40.444;-3.668;2023-02-28T07:20:11;19.80;77.70
45969;DHT22;31676;40.444;-3.668;2023-02-28T07:22:37;19.80;77.70
45969;DHT22;31676;40.444;-3.668;2023-02-28T07:25:04;19.80;77.60
45969;DHT22;31676;40.444;-3.668;2023-02-28T07:27:30;19.80;77.70
45969;DHT22;31676;40.444;-3.668;2023-02-28T07:29:55;19.80;77.70
45969;DHT22;31676;40.444;-3.668;2023-02-28T07:32:21;19.80;77.70
45969;DHT22;31676;40.444;-3.668;2023-02-28T07:34:47;19.80;77.70
45969;DHT22;31676;40.444;-3.668;2023-02-28T07:37:14;19.90;77.70
45969;DHT22;31676;40.444;-3.668;2023-02-28T07:39:40;19.80;77.70
45969;DHT22;31676;40.444;-3.668;2023-02-28T07:42:08;19.80;77.60
45969;DHT22;31676;40.444;-3.668;2023-02-28T07:44:37;19.80;77.60
45969;DHT22;31676;40.444;-3.668;2023-02-28T07:47:06;19.80;78.30
45969;DHT22;31676;40.444;-3.668;2023-02-28T07:49:32;19.80;77.70
45969;DHT22;31676;40.444;-3.668;2023-02-28T07:51:58;19.80;77.70
45969;DHT22;31676;40.444;-3.668;2023-02-28T07:54:24;19.80;77.60
45969;DHT22;31676;40.444;-3.668;2023-02-28T07:56:49;19.80;77.60
45969;DHT22;31676;40.444;-3.668;2023-02-28T07:59:15;19.80;77.70
45969;DHT22;31676;40.444;-3.668;2023-02-28T08:01:41;19.80;77.60
45969;DHT22;31676;40.444;-3.668;2023-02-28T08:04:07;19.80;77.60
45969;DHT22;31676;40.444;-3.668;2023-02-28T08:06:32;19.80;77.60
45969;DHT22;31676;40.444;-3.668;2023-02-28T08:08:58;19.80;77.60
45969;DHT22;31676;40.444;-3.668;2023-02-28T08:11:24;19.80;77.60
45969;DHT22;31676;40.444;-3.668;2023-02-28T08:13:49;19.80;77.70
45969;DHT22;31676;40.444;-3.668;2023-02-28T08:16:16;19.80;77.60
45969;DHT22;31676;40.444;-3.668;2023-02-28T08:18:56;19.80;77.60
45969;DHT22;31676;40.444;-3.668;2023-02-28T08:21:22;19.80;77.70
45969;DHT22;31676;40.444;-3.668;2023-02-28T08:23:48;19.80;77.70
45969;DHT22;31676;40.444;-3.668;2023-02-28T08:26:14;19.80;77.70
45969;DHT22;31676;40.444;-3.668;2023-02-28T08:28:40;19.80;77.70
45969;DHT22;31676;40.444;-3.668;2023-02-28T08:31:09;19.80;77.60
45969;DHT22;31676;40.444;-3.668;2023-02-28T08:33:35;19.80;77.70
45969;DHT22;31676;40.444;-3.668;2023-02-28T08:36:01;19.80;77.70
45969;DHT22;31676;40.444;-3.668;2023-02-28T08:38:27;19.80;77.70
45969;DHT22;31676;40.444;-3.668;2023-02-28T08:43:45;19.80;77.70
45969;DHT22;31676;40.444;-3.668;2023-02-28T08:46:12;19.80;77.70
45969;DHT22;31676;40.444;-3.668;2023-02-28T08:48:38;19.80;77.70
45969;DHT22;31676;40.444;-3.668;2023-02-28T08:51:05;19.80;77.60
45969;DHT22;31676;40.444;-3.668;2023-02-28T08:53:31;19.80;77.70
45969;DHT22;31676;40.444;-3.668;2023-02-28T08:56:01;19.80;77.70
45969;DHT22;31676;40.444;-3.668;2023-02-28T08:58:27;19.80;77.70
45969;DHT22;31676;40.444;-3.668;2023-02-28T09:00:53;19.80;77.60
45969;DHT22;31676;40.444;-3.668;2023-02-28T09:03:19;19.80;77.60
45969;DHT22;31676;40.444;-3.668;2023-02-28T09:05:51;19.80;77.60
45969;DHT22;31676;40.444;-3.668;2023-02-28T09:08:17;19.80;77.70
45969;DHT22;31676;40.444;-3.668;2023-02-28T09:10:43;19.80;77.60
45969;DHT22;31676;40.444;-3.668;2023-02-28T09:13:09;19.80;77.60
45969;DHT22;31676;40.444;-3.668;2023-02-28T09:15:36;19.80;77.60
45969;DHT22;31676;40.444;-3.668;2023-02-28T09:18:02;19.80;77.60
45969;DHT22;31676;40.444;-3.668;2023-02-28T09:20:28;19.80;77.60
45969;DHT22;31676;40.444;-3.668;2023-02-28T09:22:53;19.80;77.60
45969;DHT22;31676;40.444;-3.668;2023-02-28T09:25:19;19.80;77.60
45969;DHT22;31676;40.444;-3.668;2023-02-28T09:27:45;19.80;77.60
45969;DHT22;31676;40.444;-3.668;2023-02-28T09:30:11;19.80;77.60
45969;DHT22;31676;40.444;-3.668;2023-02-28T09:32:37;19.80;77.60
45969;DHT22;31676;40.444;-3.668;2023-02-28T09:35:03;19.80;77.60
45969;DHT22;31676;40.444;-3.668;2023-02-28T09:37:28;19.80;77.60
45969;DHT22;31676;40.444;-3.668;2023-02-28T09:39:54;19.80;77.60
45969;DHT22;31676;40.444;-3.668;2023-02-28T09:42:41;19.80;77.60
45969;DHT22;31676;40.444;-3.668;2023-02-28T09:47:46;19.80;77.60
45969;DHT22;31676;40.444;-3.668;2023-02-28T09:52:51;19.80;77.60
45969;DHT22;31676;40.444;-3.668;2023-02-28T09:55:19;19.80;77.60
45969;DHT22;31676;40.444;-3.668;2023-02-28T09:57:45;19.80;77.60
45969;DHT22;31676;40.444;-3.668;2023-02-28T10:02:54;19.80;77.60
45969;DHT22;31676;40.444;-3.668;2023-02-28T10:05:24;19.80;77.60
45969;DHT22;31676;40.444;-3.668;2023-02-28T10:07:58;19.80;77.60
45969;DHT22;31676;40.444;-3.668;2023-02-28T10:10:30;19.80;77.60
45969;DHT22;31676;40.444;-3.668;2023-02-28T10:12:59;19.80;77.60
45969;DHT22;31676;40.444;-3.668;2023-02-28T10:15:26;19.80;77.60
45969;DHT22;31676;40.444;-3.668;2023-02-28T10:17:54;19.80;77.60
45969;DHT22;31676;40.444;-3.668;2023-02-28T10:20:22;19.80;77.60
45969;DHT22;31676;40.444;-3.668;2023-02-28T10:23:11;19.80;77.60
45969;DHT22;31676;40.444;-3.668;2023-02-28T10:25:38;19.80;77.60
45969;DHT22;31676;40.444;-3.668;2023-02-28T10:30:34;19.80;77.50
45969;DHT22;31676;40.444;-3.668;2023-02-28T10:33:00;19.90;77.60
45969;DHT22;31676;40.444;-3.668;2023-02-28T10:35:26;19.80;77.50
45969;DHT22;31676;40.444;-3.668;2023-02-28T10:37:57;19.90;77.60
45969;DHT22;31676;40.444;-3.668;2023-02-28T10:42:59;19.90;77.60
45969;DHT22;31676;40.444;-3.668;2023-02-28T10:45:26;19.90;77.50
45969;DHT22;31676;40.444;-3.668;2023-02-28T10:47:57;19.90;77.50
45969;DHT22;31676;40.444;-3.668;2023-02-28T10:53:25;19.90;77.50
45969;DHT22;31676;40.444;-3.668;2023-02-28T10:58:26;19.90;77.50
45969;DHT22;31676;40.444;-3.668;2023-02-28T11:00:52;19.90;77.50
45969;DHT22;31676;40.444;-3.668;2023-02-28T11:03:25;20.00;77.50
45969;DHT22;31676;40.444;-3.668;2023-02-28T11:05:51;19.90;77.50
45969;DHT22;31676;40.444;-3.668;2023-02-28T11:08:17;19.90;77.40
45969;DHT22;31676;40.444;-3.668;2023-02-28T11:10:47;20.00;77.50
45969;DHT22;31676;40.444;-3.668;2023-02-28T11:13:16;20.00;77.50
45969;DHT22;31676;40.444;-3.668;2023-02-28T11:15:43;20.00;77.50
45969;DHT22;31676;40.444;-3.668;2023-02-28T11:18:24;20.00;77.50
45969;DHT22;31676;40.444;-3.668;2023-02-28T11:20:52;20.00;77.50
45969;DHT22;31676;40.444;-3.668;2023-02-28T11:23:18;20.00;77.50
45969;DHT22;31676;40.444;-3.668;2023-02-28T11:25:47;20.00;77.50
45969;DHT22;31676;40.444;-3.668;2023-02-28T11:28:29;20.00;77.50
45969;DHT22;31676;40.444;-3.668;2023-02-28T11:31:04;20.00;77.40
45969;DHT22;31676;40.444;-3.668;2023-02-28T11:33:31;20.00;77.40
45969;DHT22;31676;40.444;-3.668;2023-02-28T11:36:01;20.00;77.40
45969;DHT22;31676;40.444;-3.668;2023-02-28T11:38:28;20.00;77.40
45969;DHT22;31676;40.444;-3.668;2023-02-28T11:43:40;20.00;77.40
45969;DHT22;31676;40.444;-3.668;2023-02-28T11:51:47;20.10;77.40
45969;DHT22;31676;40.444;-3.668;2023-02-28T11:56:48;20.10;77.40
45969;DHT22;31676;40.444;-3.668;2023-02-28T11:59:35;20.10;77.40
45969;DHT22;31676;40.444;-3.668;2023-02-28T12:27:54;20.20;77.40
45969;DHT22;31676;40.444;-3.668;2023-02-28T12:30:30;20.20;77.40
45969;DHT22;31676;40.444;-3.668;2023-02-28T12:32:58;20.20;77.40
45969;DHT22;31676;40.444;-3.668;2023-02-28T12:35:31;20.20;77.30
45969;DHT22;31676;40.444;-3.668;2023-02-28T12:38:04;20.20;77.30
45969;DHT22;31676;40.444;-3.668;2023-02-28T12:40:40;20.20;77.30
45969;DHT22;31676;40.444;-3.668;2023-02-28T12:43:07;20.20;77.30
45969;DHT22;31676;40.444;-3.668;2023-02-28T12:48:23;20.30;77.30
45969;DHT22;31676;40.444;-3.668;2023-02-28T12:50:50;20.30;77.30
45969;DHT22;31676;40.444;-3.668;2023-02-28T12:53:32;20.30;77.30
45969;DHT22;31676;40.444;-3.668;2023-02-28T12:58:36;20.30;77.20
45969;DHT22;31676;40.444;-3.668;2023-02-28T13:03:38;20.30;77.20
45969;DHT22;31676;40.444;-3.668;2023-02-28T13:06:17;20.30;77.20
45969;DHT22;31676;40.444;-3.668;2023-02-28T13:08:57;20.40;77.20
45969;DHT22;31676;40.444;-3.668;2023-02-28T13:11:28;20.40;77.20
45969;DHT22;31676;40.444;-3.668;2023-02-28T13:13:59;20.40;77.20
45969;DHT22;31676;40.444;-3.668;2023-02-28T13:16:25;20.40;77.20
45969;DHT22;31676;40.444;-3.668;2023-02-28T13:18:50;20.40;77.10
45969;DHT22;31676;40.444;-3.668;2023-02-28T13:21:27;20.40;77.10
45969;DHT22;31676;40.444;-3.668;2023-02-28T13:29:02;20.40;77.10
45969;DHT22;31676;40.444;-3.668;2023-02-28T13:31:29;20.40;77.10
45969;DHT22;31676;40.444;-3.668;2023-02-28T13:36:31;20.40;77.00
45969;DHT22;31676;40.444;-3.668;2023-02-28T13:38:58;20.40;77.00
45969;DHT22;31676;40.444;-3.668;2023-02-28T13:44:04;20.50;77.10
45969;DHT22;31676;40.444;-3.668;2023-02-28T13:46:31;20.50;77.10
45969;DHT22;31676;40.444;-3.668;2023-02-28T13:49:17;20.50;77.00
45969;DHT22;31676;40.444;-3.668;2023-02-28T13:51:44;20.50;77.00
45969;DHT22;31676;40.444;-3.668;2023-02-28T13:54:16;20.50;77.00
45969;DHT22;31676;40.444;-3.668;2023-02-28T13:59:29;20.50;77.00
45969;DHT22;31676;40.444;-3.668;2023-02-28T14:07:01;20.50;77.00
45969;DHT22;31676;40.444;-3.668;2023-02-28T14:09:29;20.50;76.90
45969;DHT22;31676;40.444;-3.668;2023-02-28T14:11:56;20.60;77.00
45969;DHT22;31676;40.444;-3.668;2023-02-28T14:17:01;20.60;77.00
45969;DHT22;31676;40.444;-3.668;2023-02-28T14:19:28;20.60;77.00
45969;DHT22;31676;40.444;-3.668;2023-02-28T14:29:45;20.60;76.90
45969;DHT22;31676;40.444;-3.668;2023-02-28T14:32:22;20.60;77.00
45969;DHT22;31676;40.444;-3.668;2023-02-28T14:34:59;20.60;76.90
45969;DHT22;31676;40.444;-3.668;2023-02-28T14:37:30;20.60;76.90
45969;DHT22;31676;40.444;-3.668;2023-02-28T14:39:58;20.60;76.90
45969;DHT22;31676;40.444;-3.668;2023-02-28T14:42:32;20.60;76.90
45969;DHT22;31676;40.444;-3.668;2023-02-28T14:44:58;20.60;76.90
45969;DHT22;31676;40.444;-3.668;2023-02-28T14:47:33;20.70;76.90
45969;DHT22;31676;40.444;-3.668;2023-02-28T14:50:00;20.70;76.90
45969;DHT22;31676;40.444;-3.668;2023-02-28T14:52:27;20.70;76.90
45969;DHT22;31676;40.444;-3.668;2023-02-28T15:02:24;20.70;76.90
45969;DHT22;31676;40.444;-3.668;2023-02-28T15:04:54;20.70;76.90
45969;DHT22;31676;40.444;-3.668;2023-02-28T15:07:20;20.70;76.90
45969;DHT22;31676;40.444;-3.668;2023-02-28T15:12:35;20.80;76.90
45969;DHT22;31676;40.444;-3.668;2023-02-28T15:15:01;20.80;76.90
45969;DHT22;31676;40.444;-3.668;2023-02-28T15:17:27;20.70;76.80
45969;DHT22;31676;40.444;-3.668;2023-02-28T15:19:53;20.80;76.80
45969;DHT22;31676;40.444;-3.668;2023-02-28T15:22:20;20.70;77.50
45969;DHT22;31676;40.444;-3.668;2023-02-28T15:24:50;20.80;76.90
45969;DHT22;31676;40.444;-3.668;2023-02-28T15:27:21;20.80;76.90
45969;DHT22;31676;40.444;-3.668;2023-02-28T15:29:51;20.80;76.90
45969;DHT22;31676;40.444;-3.668;2023-02-28T15:34:50;20.80;76.90
45969;DHT22;31676;40.444;-3.668;2023-02-28T15:42:38;20.80;76.90
45969;DHT22;31676;40.444;-3.668;2023-02-28T15:45:04;20.80;76.80
45969;DHT22;31676;40.444;-3.668;2023-02-28T15:47:30;20.80;76.80
45969;DHT22;31676;40.444;-3.668;2023-02-28T15:52:24;20.90;76.90
45969;DHT22;31676;40.444;-3.668;2023-02-28T15:54:51;20.80;76.80
45969;DHT22;31676;40.444;-3.668;2023-02-28T15:57:19;20.80;76.80
45969;DHT22;31676;40.444;-3.668;2023-02-28T15:59:50;20.80;76.80
45969;DHT22;31676;40.444;-3.668;2023-02-28T16:02:17;20.90;76.90
45969;DHT22;31676;40.444;-3.668;2023-02-28T16:04:54;20.80;76.80
45969;DHT22;31676;40.444;-3.668;2023-02-28T16:07:20;20.90;76.90
45969;DHT22;31676;40.444;-3.668;2023-02-28T16:09:46;20.90;76.90
45969;DHT22;31676;40.444;-3.668;2023-02-28T16:12:13;20.90;76.90
45969;DHT22;31676;40.444;-3.668;2023-02-28T16:14:39;20.90;76.90
45969;DHT22;31676;40.444;-3.668;2023-02-28T16:17:06;20.90;76.90
45969;DHT22;31676;40.444;-3.668;2023-02-28T16:19:34;20.90;76.90
45969;DHT22;31676;40.444;-3.668;2023-02-28T16:22:00;20.90;76.90
45969;DHT22;31676;40.444;-3.668;2023-02-28T16:24:26;20.90;76.90
45969;DHT22;31676;40.444;-3.668;2023-02-28T16:26:52;20.90;76.80
45969;DHT22;31676;40.444;-3.668;2023-02-28T16:29:21;20.90;76.90
45969;DHT22;31676;40.444;-3.668;2023-02-28T16:31:49;20.90;76.90
45969;DHT22;31676;40.444;-3.668;2023-02-28T16:34:15;20.90;76.80
45969;DHT22;31676;40.444;-3.668;2023-02-28T16:36:41;20.90;76.90
45969;DHT22;31676;40.444;-3.668;2023-02-28T16:39:06;20.90;76.80
45969;DHT22;31676;40.444;-3.668;2023-02-28T16:41:32;20.90;76.90
45969;DHT22;31676;40.444;-3.668;2023-02-28T16:43:59;20.90;76.90
45969;DHT22;31676;40.444;-3.668;2023-02-28T16:46:33;20.90;76.90
45969;DHT22;31676;40.444;-3.668;2023-02-28T16:48:59;20.90;76.90
45969;DHT22;31676;40.444;-3.668;2023-02-28T16:51:25;20.90;76.90
45969;DHT22;31676;40.444;-3.668;2023-02-28T16:53:51;20.90;76.90
45969;DHT22;31676;40.444;-3.668;2023-02-28T16:56:20;20.90;76.90
45969;DHT22;31676;40.444;-3.668;2023-02-28T16:58:47;20.90;76.90
45969;DHT22;31676;40.444;-3.668;2023-02-28T17:01:13;20.90;76.90
45969;DHT22;31676;40.444;-3.668;2023-02-28T17:03:39;20.90;76.90
45969;DHT22;31676;40.444;-3.668;2023-02-28T17:06:06;20.90;76.90
45969;DHT22;31676;40.444;-3.668;2023-02-28T17:08:32;20.90;76.90
45969;DHT22;31676;40.444;-3.668;2023-02-28T17:10:58;20.90;76.80
45969;DHT22;31676;40.444;-3.668;2023-02-28T17:13:24;20.90;76.90
45969;DHT22;31676;40.444;-3.668;2023-02-28T17:15:49;20.90;76.90
45969;DHT22;31676;40.444;-3.668;2023-02-28T17:18:16;20.90;76.80
45969;DHT22;31676;40.444;-3.668;2023-02-28T17:20:44;20.90;76.90
45969;DHT22;31676;40.444;-3.668;2023-02-28T17:23:10;21.00;76.90
45969;DHT22;31676;40.444;-3.668;2023-02-28T17:25:36;20.90;76.80
45969;DHT22;31676;40.444;-3.668;2023-02-28T17:28:02;21.00;76.90
45969;DHT22;31676;40.444;-3.668;2023-02-28T17:30:27;21.00;76.90
45969;DHT22;31676;40.444;-3.668;2023-02-28T17:32:54;21.00;76.90
45969;DHT22;31676;40.444;-3.668;2023-02-28T17:35:19;20.90;76.90
45969;DHT22;31676;40.444;-3.668;2023-02-28T17:37:45;21.00;76.90
45969;DHT22;31676;40.444;-3.668;2023-02-28T17:40:15;21.00;76.90
45969;DHT22;31676;40.444;-3.668;2023-02-28T17:42:41;21.00;76.90
45969;DHT22;31676;40.444;-3.668;2023-02-28T17:45:07;21.00;76.90
45969;DHT22;31676;40.444;-3.668;2023-02-28T17:47:32;21.00;76.90
45969;DHT22;31676;40.444;-3.668;2023-02-28T17:49:58;21.00;76.90
45969;DHT22;31676;40.444;-3.668;2023-02-28T17:52:24;21.00;76.90
45969;DHT22;31676;40.444;-3.668;2023-02-28T17:54:49;21.00;76.90
45969;DHT22;31676;40.444;-3.668;2023-02-28T17:57:15;21.00;76.90
45969;DHT22;31676;40.444;-3.668;2023-02-28T17:59:42;21.00;76.90
45969;DHT22;31676;40.444;-3.668;2023-02-28T18:02:08;21.00;76.90